Sikuliaq — WDG7520 — position and weather

sailwx.info

Track history (hours):
 
Tides and Currents Weather Stations Pressure Air Temp Water Temp Dewpoint Dewpoint Depression Visibility Wind Speed Wind Dir Waves Ship Positions

Oceanographic research ship Sikuliaq (USA)

Owner: Mackay Communications, Raleigh, NC. More information available from US FCC via Universal Licensing System.

Last reported at 2020-Jul-03 19:00 UTC. Time now 2020-Jul-03 20:28 UTC.
Position N 59°00' W 148°42'.

Length 80 m; draft 6 m.

Type: Other ship. MMSI: 338417000.

Wind from 290 at 13 knots

Barometer 1014.8 mb
Air temperature 14.7 ° C
Dewpoint 11.2 ° C
Water temperature 12.3 ° C

Date/timePositionNaut miles runAvg speedWind from/ knotsBaromVisibWave heightAir tempDewpointWater temp
2020-Jul-03 19:00N 59°00' W 148°42'0 0.0 290 / 131014.8 14.711.212.3
2020-Jul-03 18:00N 59°00' W 148°42'0 0.0 270 / 41014.9 14.311.612.2
2020-Jul-03 17:00N 59°00' W 148°42'6 6.0 300 / 151014.5 15.010.512.0
2020-Jul-03 16:00N 59°06' W 148°42'9 8.6 270 / 151014.4 13.911.212.2
2020-Jul-03 15:00N 59°12' W 148°54'1212.4 280 / 161014.4 15.910.012.2
2020-Jul-03 14:00N 59°24' W 149°00'7 6.7 320 / 141014.2 16.6 9.712.8
2020-Jul-03 13:00N 59°30' W 149°06'7 6.7 310 / 171014.2 16.3 9.913.1
2020-Jul-03 12:00N 59°36' W 149°12'0 0.0 320 / 211014.3 17.7 8.512.6
2020-Jul-03 11:00N 59°36' W 149°12'7 6.7 320 / 171014.2 16.6 9.512.7
2020-Jul-03 10:00N 59°42' W 149°18'0 0.0 340 / 141014.6 17.3 8.912.3
2020-Jul-03 09:00N 59°42' W 149°18'9 8.5 340 / 131014.7 19.3 7.112.4
2020-Jul-03 08:00N 59°48' W 149°30'6 6.0 350 / 61014.9 20.0 6.712.5
2020-Jul-03 07:00N 59°54' W 149°30'7 6.7 330 / 191014.3 19.0 7.313.5
2020-Jul-03 06:00N 59°48' W 149°24'0 0.0 020 / 131014.6 18.5 8.612.9
2020-Jul-03 05:00N 59°48' W 149°24'7 6.7 330 / 81014.7 18.0 9.213.5
2020-Jul-03 04:00N 59°42' W 149°18'0 0.0 240 / 91015.0 18.9 7.412.7
2020-Jul-03 03:00N 59°42' W 149°18'9 8.5 260 / 141015.5 21.0 4.312.8
2020-Jul-03 02:00N 59°48' W 149°30'0 0.0 270 / 111015.8 22.2 6.412.5
2020-Jul-03 01:00N 59°48' W 149°30'12 2.1 250 / 111016.1 22.6 4.212.5
2020-Jul-02 19:00N 60°00' W 149°24'0 0.0 350 / 191017.9 21.0 4.4
2020-Jul-02 18:00N 60°00' W 149°24'6 6.0 1018.5 18.9 5.8
2020-Jul-02 17:00N 60°06' W 149°24'0 0.0 020 / 241018.2 18.9 3.7
2020-Jul-02 16:00N 60°06' W 149°24'0 0.0 300 / 41020.2 17.1 4.3
2020-Jul-02 15:00N 60°06' W 149°24'0 0.0 1020.7 16.5 3.2
2020-Jul-02 14:00N 60°06' W 149°24'0 0.0 350 / 51021.2 16.3 3.1
2020-Jul-02 13:00N 60°06' W 149°24'0 0.0 340 / 61021.1 16.3 2.8
2020-Jul-02 12:00N 60°06' W 149°24'0 0.0 020 / 91021.0 16.7 2.7
2020-Jul-02 11:00N 60°06' W 149°24'0 0.0 030 / 131020.8 18.0 2.7
2020-Jul-02 10:00N 60°06' W 149°24'0 0.0 350 / 71020.9 20.6 2.2
2020-Jul-02 09:00N 60°06' W 149°24'0 0.0 060 / 31020.8 20.0 2.5
2020-Jul-02 08:00N 60°06' W 149°24'0 0.0 250 / 41020.7 20.1 2.7
2020-Jul-02 07:00N 60°06' W 149°24'0 0.0 090 / 21020.7 18.8 5.2
2020-Jul-02 06:00N 60°06' W 149°24'0 0.0 280 / 51020.6 21.6 2.9
2020-Jul-02 05:00N 60°06' W 149°24'0 0.0 320 / 31020.9 22.4 3.7
2020-Jul-02 04:00N 60°06' W 149°24'0 0.0 350 / 111021.1 22.7 4.0
2020-Jul-02 03:00N 60°06' W 149°24'0 0.0 360 / 41021.3 23.6 3.4
2020-Jul-02 02:00N 60°06' W 149°24'0 0.0 360 / 101021.3 23.1 3.3
2020-Jul-02 01:00N 60°06' W 149°24'0 0.0 170 / 71021.7 19.1 7.9
2020-Jul-02 00:00N 60°06' W 149°24'0 0.0 190 / 91021.9 18.5 7.6
2020-Jul-01 23:00N 60°06' W 149°24'0 0.0 010 / 51022.1 22.7 2.3
2020-Jul-01 22:00N 60°06' W 149°24'0 0.0 160 / 71022.2 19.7 3.6
2020-Jul-01 21:00N 60°06' W 149°24'0 0.0 020 / 61022.7 21.0 2.9
2020-Jul-01 20:00N 60°06' W 149°24'0 0.0 010 / 131022.7 19.5 3.2
2020-Jul-01 19:00N 60°06' W 149°24'0 0.0 040 / 141023.0 18.2 4.5
2020-Jul-01 18:00N 60°06' W 149°24'0 0.0 010 / 81023.6 17.4 4.3
2020-Jul-01 17:00N 60°06' W 149°24'0 0.0 1023.8 15.7 4.6
2020-Jul-01 16:00N 60°06' W 149°24'0 0.0 020 / 51023.9 14.4 4.6
2020-Jul-01 15:00N 60°06' W 149°24'0 0.0 350 / 81024.2 13.6 4.1
2020-Jul-01 14:00N 60°06' W 149°24'0 0.0 350 / 81024.2 13.7 3.9
2020-Jul-01 13:00N 60°06' W 149°24'0 0.0 1023.8 13.8 4.0
2020-Jul-01 12:00N 60°06' W 149°24'0 0.0 010 / 91023.7 15.3 3.6
2020-Jul-01 11:00N 60°06' W 149°24'0 0.0 030 / 101023.5 16.0 3.7
2020-Jul-01 10:00N 60°06' W 149°24'0 0.0 030 / 101023.4 16.4 3.0
2020-Jul-01 09:00N 60°06' W 149°24'0 0.0 280 / 31023.4 16.5 3.5
2020-Jul-01 08:00N 60°06' W 149°24'0 0.0 340 / 21023.0 17.7 2.8
2020-Jul-01 07:00N 60°06' W 149°24'0 0.0 1022.6 18.4 2.0
2020-Jul-01 06:00N 60°06' W 149°24'0 0.0 320 / 51022.3 19.1 1.5
2020-Jul-01 05:00N 60°06' W 149°24'0 0.0 330 / 21021.8 19.4 1.3
2020-Jul-01 04:00N 60°06' W 149°24'0 0.0 330 / 61021.6 19.6 1.5
2020-Jul-01 03:00N 60°06' W 149°24'0 0.0 010 / 81021.4 20.1 1.9
2020-Jul-01 02:00N 60°06' W 149°24'0 0.0 360 / 81021.3 20.2 1.4
2020-Jul-01 01:00N 60°06' W 149°24'0 0.0 350 / 21021.3 20.3 1.6
2020-Jul-01 00:00N 60°06' W 149°24'0 0.0 350 / 71021.4 20.2 1.9
2020-Jun-30 23:00N 60°06' W 149°24'0 0.0 320 / 61021.5 19.9 3.5
2020-Jun-30 21:00N 60°06' W 149°24'0 0.0 340 / 61021.3 17.8 4.7
2020-Jun-30 20:00N 60°06' W 149°24'0 0.0 350 / 61020.9 17.9 4.2
2020-Jun-30 19:00N 60°06' W 149°24'0 0.0 070 / 91020.9 16.2 4.3
2020-Jun-30 18:00N 60°06' W 149°24'0 0.0 010 / 51020.9 15.2 5.7
2020-Jun-30 17:00N 60°06' W 149°24'0 0.0 350 / 71020.6 13.9 5.7
2020-Jun-30 16:00N 60°06' W 149°24'0 0.0 340 / 51020.5 13.1 5.1
2020-Jun-30 15:00N 60°06' W 149°24'0 0.0 330 / 41020.4 12.2 5.0
2020-Jun-30 14:00N 60°06' W 149°24'0 0.0 360 / 51020.1 12.0 4.9
2020-Jun-30 13:00N 60°06' W 149°24'0 0.0 340 / 41019.8 11.5 4.8
2020-Jun-30 12:00N 60°06' W 149°24'0 0.0 350 / 41019.6 12.0 4.9
2020-Jun-30 11:00N 60°06' W 149°24'0 0.0 350 / 11019.2 11.8 6.1
2020-Jun-30 10:00N 60°06' W 149°24'0 0.0 240 / 31018.7 11.8 7.0
2020-Jun-30 09:00N 60°06' W 149°24'0 0.0 280 / 11018.5 12.1 7.7
2020-Jun-30 08:00N 60°06' W 149°24'0 0.0 280 / 11018.3 12.4 8.7
2020-Jun-30 07:00N 60°06' W 149°24'0 0.0 340 / 21017.8 13.0 8.9
2020-Jun-30 06:00N 60°06' W 149°24'0 0.0 1017.5 14.4 9.1
2020-Jun-30 05:00N 60°06' W 149°24'0 0.0 180 / 81017.1 15.2 9.2
2020-Jun-30 04:00N 60°06' W 149°24'0 0.0 200 / 111016.9 15.9 6.9
2020-Jun-30 03:00N 60°06' W 149°24'0 0.0 170 / 151016.7 15.7 7.0
2020-Jun-30 02:00N 60°06' W 149°24'0 0.0 190 / 151016.8 16.1 6.0
2020-Jun-30 01:00N 60°06' W 149°24'0 0.0 180 / 121017.2 15.7 7.0
2020-Jun-30 00:00N 60°06' W 149°24'0 0.0 170 / 151017.2 13.8 9.9
2020-Jun-29 23:00N 60°06' W 149°24'0 0.0 160 / 141017.3 14.6 7.1
2020-Jun-29 22:00N 60°06' W 149°24'0 0.0 180 / 151017.6 14.0 7.8
2020-Jun-29 21:00N 60°06' W 149°24'0 0.0 180 / 131017.6 12.9 7.2
2020-Jun-29 20:00N 60°06' W 149°24'0 0.0 170 / 81017.5 12.1 7.7
2020-Jun-29 19:00N 60°06' W 149°24'0 0.0 170 / 91017.6 10.2 7.6
2020-Jun-29 18:00N 60°06' W 149°24'0 0.0 170 / 41017.5 9.5 6.1
2020-Jun-29 17:00N 60°06' W 149°24'0 0.0 070 / 11017.5 9.9 6.6
2020-Jun-29 16:00N 60°06' W 149°24'0 0.0 210 / 11017.9 7.8 6.2
2020-Jun-29 15:00N 60°06' W 149°24'0 0.0 040 / 31017.6 8.5 6.0
2020-Jun-29 14:00N 60°06' W 149°24'0 0.0 050 / 11017.5 6.7 5.8
2020-Jun-29 13:00N 60°06' W 149°24'0 0.0 080 / 11017.3 7.7 6.2
2020-Jun-29 12:00N 60°06' W 149°24'0 0.0 270 / 11016.6 7.9 6.4
2020-Jun-29 11:00N 60°06' W 149°24'0 0.0 200 / 11016.1 8.6 6.5
2020-Jun-29 10:00N 60°06' W 149°24'0 0.0 260 / 21015.8 9.3 6.5
2020-Jun-29 09:00N 60°06' W 149°24'0 0.0 010 / 11015.3 9.7 7.3
2020-Jun-29 08:00N 60°06' W 149°24'0 0.0 280 / 31014.6 10.6 7.4
2020-Jun-29 07:00N 60°06' W 149°24'0 0.0 270 / 11014.1 10.2 8.2
2020-Jun-29 06:00N 60°06' W 149°24'0 0.0 200 / 11013.4 10.3 8.9
2020-Jun-29 05:00N 60°06' W 149°24'0 0.0 180 / 11013.2 10.7 8.6
2020-Jun-29 04:00N 60°06' W 149°24'0 0.0 200 / 21012.9 10.5 8.1
2020-Jun-29 03:00N 60°06' W 149°24'0 0.0 160 1012.9 10.1 8.9
2020-Jun-29 02:00N 60°06' W 149°24'0 0.0 170 / 11013.2 9.8 8.8
2020-Jun-29 01:00N 60°06' W 149°24'0 0.0 170 / 11013.6 9.8 8.3
2020-Jun-29 00:00N 60°06' W 149°24'0 0.0 360 / 31014.3 10.3 8.2
2020-Jun-28 23:00N 60°06' W 149°24'0 0.0 040 / 31014.8 11.0 7.5
2020-Jun-28 22:00N 60°06' W 149°24'0 0.0 200 / 71014.8 11.7 5.5
2020-Jun-28 21:00N 60°06' W 149°24'0 0.0 200 / 81015.4 11.5 5.9
2020-Jun-28 20:00N 60°06' W 149°24'0 0.0 250 / 61016.0 11.2 6.1
2020-Jun-28 19:00N 60°06' W 149°24'0 0.0 200 / 101017.0 10.3 5.8
2020-Jun-28 18:00N 60°06' W 149°24'0 0.0 230 / 31017.1 9.2 6.4
2020-Jun-28 17:00N 60°06' W 149°24'0 0.0 330 / 11016.9 9.0 7.1
2020-Jun-28 16:00N 60°06' W 149°24'0 0.0 240 / 111018.3 9.2 5.7
2020-Jun-28 15:00N 60°06' W 149°24'0 0.0 240 / 51018.2 8.8 6.6
2020-Jun-28 14:00N 60°06' W 149°24'0 0.0 190 / 81018.4 10.1 6.3
2020-Jun-28 13:00N 60°06' W 149°24'0 0.0 230 / 61019.0 11.0 5.0
2020-Jun-28 12:00N 60°06' W 149°24'0 0.0 230 / 81019.2 11.7 3.1
2020-Jun-28 11:00N 60°06' W 149°24'0 0.0 230 / 41019.4 12.0 2.4
2020-Jun-28 10:00N 60°06' W 149°24'0 0.0 180 / 91019.9 12.2 4.1
2020-Jun-28 09:00N 60°06' W 149°24'0 0.0 190 / 91020.1 11.9 6.3
2020-Jun-28 08:00N 60°06' W 149°24'0 0.0 170 / 111020.1 11.9 7.5
2020-Jun-28 07:00N 60°06' W 149°24'0 0.0 210 / 61019.4 14.0 4.1
2020-Jun-28 06:00N 60°06' W 149°24'0 0.0 190 / 111019.2 14.6 4.4
2020-Jun-28 05:00N 60°06' W 149°24'0 0.0 170 / 121019.4 14.6 6.9
2020-Jun-28 04:00N 60°06' W 149°24'0 0.0 190 / 101019.4 15.5 5.3
2020-Jun-28 03:00N 60°06' W 149°24'0 0.0 210 / 91019.3 16.5 4.5
2020-Jun-28 02:00N 60°06' W 149°24'0 0.0 200 / 81019.4 16.6 4.3
2020-Jun-28 01:00N 60°06' W 149°24'0 0.0 190 / 91019.5 16.3 6.2
2020-Jun-28 00:00N 60°06' W 149°24'0 0.0 180 / 111019.5 14.7 9.2
2020-Jun-27 23:00N 60°06' W 149°24'0 0.0 170 / 131019.4 14.8 9.2
2020-Jun-27 22:00N 60°06' W 149°24'0 0.0 190 / 121019.4 14.4 8.7
2020-Jun-27 21:00N 60°06' W 149°24'0 0.0 180 / 121019.3 14.5 9.3
2020-Jun-27 08:00N 60°06' W 149°24'0 0.0 330 / 61014.0 13.0 8.3
2020-Jun-27 07:00N 60°06' W 149°24'0 0.0 350 / 41013.5 13.2 8.3
2020-Jun-27 06:00N 60°06' W 149°24'0 0.0 320 / 31012.9 14.0 7.6
2020-Jun-27 05:00N 60°06' W 149°24'0 0.0 340 / 61012.4 14.2 6.7
2020-Jun-27 04:00N 60°06' W 149°24'0 0.0 340 / 71011.9 14.2 7.7
2020-Jun-27 03:00N 60°06' W 149°24'0 0.0 020 / 61011.5 14.6 8.4
2020-Jun-27 02:00N 60°06' W 149°24'0 0.0 230 / 11011.0 14.510.1
2020-Jun-27 01:00N 60°06' W 149°24'0 0.0 170 / 91010.7 14.6 8.6
2020-Jun-27 00:00N 60°06' W 149°24'0 0.0 170 / 81010.8 14.2 8.7
2020-Jun-26 23:00N 60°06' W 149°24'0 0.0 170 / 51010.9 14.0 9.5
2020-Jun-26 22:00N 60°06' W 149°24'0 0.0 170 / 91010.9 13.5 6.2
2020-Jun-26 21:00N 60°06' W 149°24'0 0.0 160 / 61011.1 12.8 8.3
2020-Jun-26 20:00N 60°06' W 149°24'0 0.0 170 / 71011.1 12.1 7.7
2020-Jun-26 19:00N 60°06' W 149°24'0 0.0 160 / 31011.1 11.6 6.8
2020-Jun-26 18:00N 60°06' W 149°24'0 0.0 180 / 31011.0 10.8 6.5
2020-Jun-26 17:00N 60°06' W 149°24'0 0.0 170 / 21010.9 10.6 6.2
2020-Jun-26 16:00N 60°06' W 149°24'0 0.0 120 / 11010.5 10.9 5.2
2020-Jun-26 15:00N 60°06' W 149°24'0 0.0 250 / 21010.0 10.5 5.4
2020-Jun-26 14:00N 60°06' W 149°24'0 0.0 190 / 21009.7 9.8 5.8
2020-Jun-26 13:00N 60°06' W 149°24'0 0.0 290 / 11009.3 10.1 5.0
2020-Jun-26 12:00N 60°06' W 149°24'0 0.0 290 / 21009.2 10.4 5.2
2020-Jun-26 11:00N 60°06' W 149°24'0 0.0 340 / 21009.1 10.9 4.9
2020-Jun-26 10:00N 60°06' W 149°24'0 0.0 350 / 21009.0 11.5 4.6
2020-Jun-26 09:00N 60°06' W 149°24'0 0.0 290 / 11008.7 11.3 5.1
2020-Jun-26 08:00N 60°06' W 149°24'0 0.0 330 / 51008.5 12.1 4.6
2020-Jun-26 06:00N 60°06' W 149°24'0 0.0 360 / 51007.3 12.8 5.1
2020-Jun-26 05:00N 60°06' W 149°24'0 0.0 240 / 21006.8 11.8 7.6
2020-Jun-26 04:00N 60°06' W 149°24'0 0.0 160 / 81006.5 11.7 8.6
2020-Jun-26 03:00N 60°06' W 149°24'0 0.0 170 / 61006.4 11.9 8.5
2020-Jun-26 02:00N 60°06' W 149°24'0 0.0 170 / 101006.3 11.5 8.3
2020-Jun-26 01:00N 60°06' W 149°24'0 0.0 170 / 81006.2 11.6 7.9
2020-Jun-26 00:00N 60°06' W 149°24'0 0.0 180 / 81006.4 11.4 8.3
2020-Jun-25 23:00N 60°06' W 149°24'0 0.0 170 / 91006.6 11.1 7.9
2020-Jun-25 22:00N 60°06' W 149°24'0 0.0 170 / 91006.7 11.0 7.7
2020-Jun-25 21:00N 60°06' W 149°24'0 0.0 160 / 71006.7 11.2 6.9
2020-Jun-25 20:00N 60°06' W 149°24'0 0.0 170 / 51006.8 10.5 8.0
2020-Jun-25 19:00N 60°06' W 149°24'0 0.0 180 / 61007.1 10.5 7.3
2020-Jun-25 18:00N 60°06' W 149°24'0 0.0 180 / 51007.4 10.0 7.6
2020-Jun-25 17:00N 60°06' W 149°24'0 0.0 050 / 41007.6 10.1 7.4
2020-Jun-25 16:00N 60°06' W 149°24'0 0.0 1008.1 10.2 6.4
2020-Jun-25 15:00N 60°06' W 149°24'0 0.0 360 / 51008.4 10.0 6.5
2020-Jun-25 14:00N 60°06' W 149°24'0 0.0 330 / 21008.6 8.9 7.6
2020-Jun-25 13:00N 60°06' W 149°24'0 0.0 240 / 11009.0 8.8 8.2
2020-Jun-25 12:00N 60°06' W 149°24'0 0.0 010 / 31009.3 9.0 8.0
2020-Jun-25 11:00N 60°06' W 149°24'0 0.0 270 / 21009.5 9.4 8.0
2020-Jun-25 10:00N 60°06' W 149°24'0 0.0 350 / 31009.9 9.1 8.0
2020-Jun-25 09:00N 60°06' W 149°24'0 0.0 270 / 21010.2 9.7 7.2
2020-Jun-25 08:00N 60°06' W 149°24'0 0.0 240 / 41010.3 10.9 6.1
2020-Jun-25 07:00N 60°06' W 149°24'0 0.0 240 / 61010.4 11.5 5.6
2020-Jun-25 06:00N 60°06' W 149°24'0 0.0 220 / 81010.3 11.5 5.9
2020-Jun-25 05:00N 60°06' W 149°24'0 0.0 230 / 71010.1 10.9 6.6
2020-Jun-25 04:00N 60°06' W 149°24'0 0.0 210 / 81009.8 12.1 5.5
2020-Jun-25 03:00N 60°06' W 149°24'0 0.0 190 / 91010.2 11.5 7.0
2020-Jun-25 02:00N 60°06' W 149°24'0 0.0 200 / 71010.4 11.7 6.1
2020-Jun-25 01:00N 60°06' W 149°24'0 0.0 190 / 101010.8 11.6 6.5
2020-Jun-25 00:00N 60°06' W 149°24'0 0.0 190 / 121010.7 11.6 6.8
2020-Jun-24 23:00N 60°06' W 149°24'0 0.0 190 / 121010.8 11.8 6.3
2020-Jun-24 22:00N 60°06' W 149°24'0 0.0 180 / 91010.9 11.6 5.8
2020-Jun-24 21:00N 60°06' W 149°24'0 0.0 170 / 71010.8 10.1 7.6
2020-Jun-24 20:00N 60°06' W 149°24'0 0.0 160 / 21010.7 9.6 7.0
2020-Jun-24 19:00N 60°06' W 149°24'0 0.0 200 / 31010.8 9.1 7.9
2020-Jun-24 18:00N 60°06' W 149°24'0 0.0 200 / 21010.7 8.9 7.3
2020-Jun-24 17:00N 60°06' W 149°24'0 0.0 250 / 21010.6 8.5 8.5
2020-Jun-24 16:00N 60°06' W 149°24'0 0.0 100 / 21010.4 8.2 8.2
2020-Jun-24 15:00N 60°06' W 149°24'0 0.0 200 / 31010.2 8.4 8.0
2020-Jun-24 14:00N 60°06' W 149°24'0 0.0 340 / 21009.9 8.5 8.4
2020-Jun-24 13:00N 60°06' W 149°24'0 0.0 220 / 11010.0 8.6 8.6
2020-Jun-24 12:00N 60°06' W 149°24'0 0.0 260 / 11010.1 8.5 8.4
2020-Jun-24 11:00N 60°06' W 149°24'0 0.0 350 / 11010.0 8.8 8.4
2020-Jun-24 10:00N 60°06' W 149°24'0 0.0 320 / 11010.1 8.4 8.0
2020-Jun-24 09:00N 60°06' W 149°24'0 0.0 270 / 21010.4 8.9 8.5
2020-Jun-24 08:00N 60°06' W 149°24'0 0.0 330 / 11010.3 8.7 8.3
2020-Jun-24 07:00N 60°06' W 149°24'0 0.0 260 / 11010.5 9.2 8.0
2020-Jun-24 06:00N 60°06' W 149°24'0 0.0 250 / 71010.7 9.7 6.5
2020-Jun-24 05:00N 60°06' W 149°24'0 0.0 220 / 101010.7 10.5 7.6
2020-Jun-24 04:00N 60°06' W 149°24'0 0.0 220 / 101010.6 10.7 7.7
2020-Jun-24 03:00N 60°06' W 149°24'0 0.0 220 / 121010.6 11.2 7.2
2020-Jun-24 02:00N 60°06' W 149°24'0 0.0 210 / 91011.0 11.0 7.2
2020-Jun-24 01:00N 60°06' W 149°24'0 0.0 190 / 101011.1 11.7 6.8
2020-Jun-24 00:00N 60°06' W 149°24'0 0.0 200 / 61011.4 11.4 7.9
2020-Jun-23 23:00N 60°06' W 149°24'0 0.0 190 / 51011.6 11.0 7.1
2020-Jun-23 22:00N 60°06' W 149°24'0 0.0 240 / 81011.6 10.9 6.1
2020-Jun-23 21:00N 60°06' W 149°24'0 0.0 200 / 101011.6 11.5 6.8
2020-Jun-23 20:00N 60°06' W 149°24'0 0.0 190 / 91011.5 10.5 8.0
2020-Jun-23 19:00N 60°06' W 149°24'   180 / 101011.0 11.2 7.8
Track history (hours):
 
Tides and Currents Weather Stations Pressure Air Temp Water Temp Dewpoint Dewpoint Depression Visibility Wind Speed Wind Dir Waves Ship Positions

Oceanographic research ship Sikuliaq (USA)

Owner: Mackay Communications, Raleigh, NC. More information available from US FCC via Universal Licensing System.

Last reported at 2020-Jul-03 19:00 UTC. Time now 2020-Jul-03 20:28 UTC.
Position N 59°00' W 148°42'.

Length 80 m; draft 6 m.

Type: Other ship. MMSI: 338417000.

Wind from 290 at 13 knots

Barometer 1014.8 mb
Air temperature 14.7 ° C
Dewpoint 11.2 ° C
Water temperature 12.3 ° C

Date/timePositionNaut miles runAvg speedWind from/ knotsBaromVisibWave heightAir tempDewpointWater temp
2020-Jul-03 19:00N 59°00' W 148°42'0 0.0 290 / 131014.8 14.711.212.3
2020-Jul-03 18:00N 59°00' W 148°42'0 0.0 270 / 41014.9 14.311.612.2
2020-Jul-03 17:00N 59°00' W 148°42'6 6.0 300 / 151014.5 15.010.512.0
2020-Jul-03 16:00N 59°06' W 148°42'9 8.6 270 / 151014.4 13.911.212.2
2020-Jul-03 15:00N 59°12' W 148°54'1212.4 280 / 161014.4 15.910.012.2
2020-Jul-03 14:00N 59°24' W 149°00'7 6.7 320 / 141014.2 16.6 9.712.8
2020-Jul-03 13:00N 59°30' W 149°06'7 6.7 310 / 171014.2 16.3 9.913.1
2020-Jul-03 12:00N 59°36' W 149°12'0 0.0 320 / 211014.3 17.7 8.512.6
2020-Jul-03 11:00N 59°36' W 149°12'7 6.7 320 / 171014.2 16.6 9.512.7
2020-Jul-03 10:00N 59°42' W 149°18'0 0.0 340 / 141014.6 17.3 8.912.3
2020-Jul-03 09:00N 59°42' W 149°18'9 8.5 340 / 131014.7 19.3 7.112.4
2020-Jul-03 08:00N 59°48' W 149°30'6 6.0 350 / 61014.9 20.0 6.712.5
2020-Jul-03 07:00N 59°54' W 149°30'7 6.7 330 / 191014.3 19.0 7.313.5
2020-Jul-03 06:00N 59°48' W 149°24'0 0.0 020 / 131014.6 18.5 8.612.9
2020-Jul-03 05:00N 59°48' W 149°24'7 6.7 330 / 81014.7 18.0 9.213.5
2020-Jul-03 04:00N 59°42' W 149°18'0 0.0 240 / 91015.0 18.9 7.412.7
2020-Jul-03 03:00N 59°42' W 149°18'9 8.5 260 / 141015.5 21.0 4.312.8
2020-Jul-03 02:00N 59°48' W 149°30'0 0.0 270 / 111015.8 22.2 6.412.5
2020-Jul-03 01:00N 59°48' W 149°30'12 2.1 250 / 111016.1 22.6 4.212.5
2020-Jul-02 19:00N 60°00' W 149°24'0 0.0 350 / 191017.9 21.0 4.4
2020-Jul-02 18:00N 60°00' W 149°24'6 6.0 1018.5 18.9 5.8
2020-Jul-02 17:00N 60°06' W 149°24'0 0.0 020 / 241018.2 18.9 3.7
2020-Jul-02 16:00N 60°06' W 149°24'0 0.0 300 / 41020.2 17.1 4.3
2020-Jul-02 15:00N 60°06' W 149°24'0 0.0 1020.7 16.5 3.2
2020-Jul-02 14:00N 60°06' W 149°24'0 0.0 350 / 51021.2 16.3 3.1
2020-Jul-02 13:00N 60°06' W 149°24'0 0.0 340 / 61021.1 16.3 2.8
2020-Jul-02 12:00N 60°06' W 149°24'0 0.0 020 / 91021.0 16.7 2.7
2020-Jul-02 11:00N 60°06' W 149°24'0 0.0 030 / 131020.8 18.0 2.7
2020-Jul-02 10:00N 60°06' W 149°24'0 0.0 350 / 71020.9 20.6 2.2
2020-Jul-02 09:00N 60°06' W 149°24'0 0.0 060 / 31020.8 20.0 2.5
2020-Jul-02 08:00N 60°06' W 149°24'0 0.0 250 / 41020.7 20.1 2.7
2020-Jul-02 07:00N 60°06' W 149°24'0 0.0 090 / 21020.7 18.8 5.2
2020-Jul-02 06:00N 60°06' W 149°24'0 0.0 280 / 51020.6 21.6 2.9
2020-Jul-02 05:00N 60°06' W 149°24'0 0.0 320 / 31020.9 22.4 3.7
2020-Jul-02 04:00N 60°06' W 149°24'0 0.0 350 / 111021.1 22.7 4.0
2020-Jul-02 03:00N 60°06' W 149°24'0 0.0 360 / 41021.3 23.6 3.4
2020-Jul-02 02:00N 60°06' W 149°24'0 0.0 360 / 101021.3 23.1 3.3
2020-Jul-02 01:00N 60°06' W 149°24'0 0.0 170 / 71021.7 19.1 7.9
2020-Jul-02 00:00N 60°06' W 149°24'0 0.0 190 / 91021.9 18.5 7.6
2020-Jul-01 23:00N 60°06' W 149°24'0 0.0 010 / 51022.1 22.7 2.3
2020-Jul-01 22:00N 60°06' W 149°24'0 0.0 160 / 71022.2 19.7 3.6
2020-Jul-01 21:00N 60°06' W 149°24'0 0.0 020 / 61022.7 21.0 2.9
2020-Jul-01 20:00N 60°06' W 149°24'0 0.0 010 / 131022.7 19.5 3.2
2020-Jul-01 19:00N 60°06' W 149°24'0 0.0 040 / 141023.0 18.2 4.5
2020-Jul-01 18:00N 60°06' W 149°24'0 0.0 010 / 81023.6 17.4 4.3
2020-Jul-01 17:00N 60°06' W 149°24'0 0.0 1023.8 15.7 4.6
2020-Jul-01 16:00N 60°06' W 149°24'0 0.0 020 / 51023.9 14.4 4.6
2020-Jul-01 15:00N 60°06' W 149°24'0 0.0 350 / 81024.2 13.6 4.1
2020-Jul-01 14:00N 60°06' W 149°24'0 0.0 350 / 81024.2 13.7 3.9
2020-Jul-01 13:00N 60°06' W 149°24'0 0.0 1023.8 13.8 4.0
2020-Jul-01 12:00N 60°06' W 149°24'0 0.0 010 / 91023.7 15.3 3.6
2020-Jul-01 11:00N 60°06' W 149°24'0 0.0 030 / 101023.5 16.0 3.7
2020-Jul-01 10:00N 60°06' W 149°24'0 0.0 030 / 101023.4 16.4 3.0
2020-Jul-01 09:00N 60°06' W 149°24'0 0.0 280 / 31023.4 16.5 3.5
2020-Jul-01 08:00N 60°06' W 149°24'0 0.0 340 / 21023.0 17.7 2.8
2020-Jul-01 07:00N 60°06' W 149°24'0 0.0 1022.6 18.4 2.0
2020-Jul-01 06:00N 60°06' W 149°24'0 0.0 320 / 51022.3 19.1 1.5
2020-Jul-01 05:00N 60°06' W 149°24'0 0.0 330 / 21021.8 19.4 1.3
2020-Jul-01 04:00N 60°06' W 149°24'0 0.0 330 / 61021.6 19.6 1.5
2020-Jul-01 03:00N 60°06' W 149°24'0 0.0 010 / 81021.4 20.1 1.9
2020-Jul-01 02:00N 60°06' W 149°24'0 0.0 360 / 81021.3 20.2 1.4
2020-Jul-01 01:00N 60°06' W 149°24'0 0.0 350 / 21021.3 20.3 1.6
2020-Jul-01 00:00N 60°06' W 149°24'0 0.0 350 / 71021.4 20.2 1.9
2020-Jun-30 23:00N 60°06' W 149°24'0 0.0 320 / 61021.5 19.9 3.5
2020-Jun-30 21:00N 60°06' W 149°24'0 0.0 340 / 61021.3 17.8 4.7
2020-Jun-30 20:00N 60°06' W 149°24'0 0.0 350 / 61020.9 17.9 4.2
2020-Jun-30 19:00N 60°06' W 149°24'0 0.0 070 / 91020.9 16.2 4.3
2020-Jun-30 18:00N 60°06' W 149°24'0 0.0 010 / 51020.9 15.2 5.7
2020-Jun-30 17:00N 60°06' W 149°24'0 0.0 350 / 71020.6 13.9 5.7
2020-Jun-30 16:00N 60°06' W 149°24'0 0.0 340 / 51020.5 13.1 5.1
2020-Jun-30 15:00N 60°06' W 149°24'0 0.0 330 / 41020.4 12.2 5.0
2020-Jun-30 14:00N 60°06' W 149°24'0 0.0 360 / 51020.1 12.0 4.9
2020-Jun-30 13:00N 60°06' W 149°24'0 0.0 340 / 41019.8 11.5 4.8
2020-Jun-30 12:00N 60°06' W 149°24'0 0.0 350 / 41019.6 12.0 4.9
2020-Jun-30 11:00N 60°06' W 149°24'0 0.0 350 / 11019.2 11.8 6.1
2020-Jun-30 10:00N 60°06' W 149°24'0 0.0 240 / 31018.7 11.8 7.0
2020-Jun-30 09:00N 60°06' W 149°24'0 0.0 280 / 11018.5 12.1 7.7
2020-Jun-30 08:00N 60°06' W 149°24'0 0.0 280 / 11018.3 12.4 8.7
2020-Jun-30 07:00N 60°06' W 149°24'0 0.0 340 / 21017.8 13.0 8.9
2020-Jun-30 06:00N 60°06' W 149°24'0 0.0 1017.5 14.4 9.1
2020-Jun-30 05:00N 60°06' W 149°24'0 0.0 180 / 81017.1 15.2 9.2
2020-Jun-30 04:00N 60°06' W 149°24'0 0.0 200 / 111016.9 15.9 6.9
2020-Jun-30 03:00N 60°06' W 149°24'0 0.0 170 / 151016.7 15.7 7.0
2020-Jun-30 02:00N 60°06' W 149°24'0 0.0 190 / 151016.8 16.1 6.0
2020-Jun-30 01:00N 60°06' W 149°24'0 0.0 180 / 121017.2 15.7 7.0
2020-Jun-30 00:00N 60°06' W 149°24'0 0.0 170 / 151017.2 13.8 9.9
2020-Jun-29 23:00N 60°06' W 149°24'0 0.0 160 / 141017.3 14.6 7.1
2020-Jun-29 22:00N 60°06' W 149°24'0 0.0 180 / 151017.6 14.0 7.8
2020-Jun-29 21:00N 60°06' W 149°24'0 0.0 180 / 131017.6 12.9 7.2
2020-Jun-29 20:00N 60°06' W 149°24'0 0.0 170 / 81017.5 12.1 7.7
2020-Jun-29 19:00N 60°06' W 149°24'0 0.0 170 / 91017.6 10.2 7.6
2020-Jun-29 18:00N 60°06' W 149°24'0 0.0 170 / 41017.5 9.5 6.1
2020-Jun-29 17:00N 60°06' W 149°24'0 0.0 070 / 11017.5 9.9 6.6
2020-Jun-29 16:00N 60°06' W 149°24'0 0.0 210 / 11017.9 7.8 6.2
2020-Jun-29 15:00N 60°06' W 149°24'0 0.0 040 / 31017.6 8.5 6.0
2020-Jun-29 14:00N 60°06' W 149°24'0 0.0 050 / 11017.5 6.7 5.8
2020-Jun-29 13:00N 60°06' W 149°24'0 0.0 080 / 11017.3 7.7 6.2
2020-Jun-29 12:00N 60°06' W 149°24'0 0.0 270 / 11016.6 7.9 6.4
2020-Jun-29 11:00N 60°06' W 149°24'0 0.0 200 / 11016.1 8.6 6.5
2020-Jun-29 10:00N 60°06' W 149°24'0 0.0 260 / 21015.8 9.3 6.5
2020-Jun-29 09:00N 60°06' W 149°24'0 0.0 010 / 11015.3 9.7 7.3
2020-Jun-29 08:00N 60°06' W 149°24'0 0.0 280 / 31014.6 10.6 7.4
2020-Jun-29 07:00N 60°06' W 149°24'0 0.0 270 / 11014.1 10.2 8.2
2020-Jun-29 06:00N 60°06' W 149°24'0 0.0 200 / 11013.4 10.3 8.9
2020-Jun-29 05:00N 60°06' W 149°24'0 0.0 180 / 11013.2 10.7 8.6
2020-Jun-29 04:00N 60°06' W 149°24'0 0.0 200 / 21012.9 10.5 8.1
2020-Jun-29 03:00N 60°06' W 149°24'0 0.0 160 1012.9 10.1 8.9
2020-Jun-29 02:00N 60°06' W 149°24'0 0.0 170 / 11013.2 9.8 8.8
2020-Jun-29 01:00N 60°06' W 149°24'0 0.0 170 / 11013.6 9.8 8.3
2020-Jun-29 00:00N 60°06' W 149°24'0 0.0 360 / 31014.3 10.3 8.2
2020-Jun-28 23:00N 60°06' W 149°24'0 0.0 040 / 31014.8 11.0 7.5
2020-Jun-28 22:00N 60°06' W 149°24'0 0.0 200 / 71014.8 11.7 5.5
2020-Jun-28 21:00N 60°06' W 149°24'0 0.0 200 / 81015.4 11.5 5.9
2020-Jun-28 20:00N 60°06' W 149°24'0 0.0 250 / 61016.0 11.2 6.1
2020-Jun-28 19:00N 60°06' W 149°24'0 0.0 200 / 101017.0 10.3 5.8
2020-Jun-28 18:00N 60°06' W 149°24'0 0.0 230 / 31017.1 9.2 6.4
2020-Jun-28 17:00N 60°06' W 149°24'0 0.0 330 / 11016.9 9.0 7.1
2020-Jun-28 16:00N 60°06' W 149°24'0 0.0 240 / 111018.3 9.2 5.7
2020-Jun-28 15:00N 60°06' W 149°24'0 0.0 240 / 51018.2 8.8 6.6
2020-Jun-28 14:00N 60°06' W 149°24'0 0.0 190 / 81018.4 10.1 6.3
2020-Jun-28 13:00N 60°06' W 149°24'0 0.0 230 / 61019.0 11.0 5.0
2020-Jun-28 12:00N 60°06' W 149°24'0 0.0 230 / 81019.2 11.7 3.1
2020-Jun-28 11:00N 60°06' W 149°24'0 0.0 230 / 41019.4 12.0 2.4
2020-Jun-28 10:00N 60°06' W 149°24'0 0.0 180 / 91019.9 12.2 4.1
2020-Jun-28 09:00N 60°06' W 149°24'0 0.0 190 / 91020.1 11.9 6.3
2020-Jun-28 08:00N 60°06' W 149°24'0 0.0 170 / 111020.1 11.9 7.5
2020-Jun-28 07:00N 60°06' W 149°24'0 0.0 210 / 61019.4 14.0 4.1
2020-Jun-28 06:00N 60°06' W 149°24'0 0.0 190 / 111019.2 14.6 4.4
2020-Jun-28 05:00N 60°06' W 149°24'0 0.0 170 / 121019.4 14.6 6.9
2020-Jun-28 04:00N 60°06' W 149°24'0 0.0 190 / 101019.4 15.5 5.3
2020-Jun-28 03:00N 60°06' W 149°24'0 0.0 210 / 91019.3 16.5 4.5
2020-Jun-28 02:00N 60°06' W 149°24'0 0.0 200 / 81019.4 16.6 4.3
2020-Jun-28 01:00N 60°06' W 149°24'0 0.0 190 / 91019.5 16.3 6.2
2020-Jun-28 00:00N 60°06' W 149°24'0 0.0 180 / 111019.5 14.7 9.2
2020-Jun-27 23:00N 60°06' W 149°24'0 0.0 170 / 131019.4 14.8 9.2
2020-Jun-27 22:00N 60°06' W 149°24'0 0.0 190 / 121019.4 14.4 8.7
2020-Jun-27 21:00N 60°06' W 149°24'0 0.0 180 / 121019.3 14.5 9.3
2020-Jun-27 08:00N 60°06' W 149°24'0 0.0 330 / 61014.0 13.0 8.3
2020-Jun-27 07:00N 60°06' W 149°24'0 0.0 350 / 41013.5 13.2 8.3
2020-Jun-27 06:00N 60°06' W 149°24'0 0.0 320 / 31012.9 14.0 7.6
2020-Jun-27 05:00N 60°06' W 149°24'0 0.0 340 / 61012.4 14.2 6.7
2020-Jun-27 04:00N 60°06' W 149°24'0 0.0 340 / 71011.9 14.2 7.7
2020-Jun-27 03:00N 60°06' W 149°24'0 0.0 020 / 61011.5 14.6 8.4
2020-Jun-27 02:00N 60°06' W 149°24'0 0.0 230 / 11011.0 14.510.1
2020-Jun-27 01:00N 60°06' W 149°24'0 0.0 170 / 91010.7 14.6 8.6
2020-Jun-27 00:00N 60°06' W 149°24'0 0.0 170 / 81010.8 14.2 8.7
2020-Jun-26 23:00N 60°06' W 149°24'0 0.0 170 / 51010.9 14.0 9.5
2020-Jun-26 22:00N 60°06' W 149°24'0 0.0 170 / 91010.9 13.5 6.2
2020-Jun-26 21:00N 60°06' W 149°24'0 0.0 160 / 61011.1 12.8 8.3
2020-Jun-26 20:00N 60°06' W 149°24'0 0.0 170 / 71011.1 12.1 7.7
2020-Jun-26 19:00N 60°06' W 149°24'0 0.0 160 / 31011.1 11.6 6.8
2020-Jun-26 18:00N 60°06' W 149°24'0 0.0 180 / 31011.0 10.8 6.5
2020-Jun-26 17:00N 60°06' W 149°24'0 0.0 170 / 21010.9 10.6 6.2
2020-Jun-26 16:00N 60°06' W 149°24'0 0.0 120 / 11010.5 10.9 5.2
2020-Jun-26 15:00N 60°06' W 149°24'0 0.0 250 / 21010.0 10.5 5.4
2020-Jun-26 14:00N 60°06' W 149°24'0 0.0 190 / 21009.7 9.8 5.8
2020-Jun-26 13:00N 60°06' W 149°24'0 0.0 290 / 11009.3 10.1 5.0
2020-Jun-26 12:00N 60°06' W 149°24'0 0.0 290 / 21009.2 10.4 5.2
2020-Jun-26 11:00N 60°06' W 149°24'0 0.0 340 / 21009.1 10.9 4.9
2020-Jun-26 10:00N 60°06' W 149°24'0 0.0 350 / 21009.0 11.5 4.6
2020-Jun-26 09:00N 60°06' W 149°24'0 0.0 290 / 11008.7 11.3 5.1
2020-Jun-26 08:00N 60°06' W 149°24'0 0.0 330 / 51008.5 12.1 4.6
2020-Jun-26 06:00N 60°06' W 149°24'0 0.0 360 / 51007.3 12.8 5.1
2020-Jun-26 05:00N 60°06' W 149°24'0 0.0 240 / 21006.8 11.8 7.6
2020-Jun-26 04:00N 60°06' W 149°24'0 0.0 160 / 81006.5 11.7 8.6
2020-Jun-26 03:00N 60°06' W 149°24'0 0.0 170 / 61006.4 11.9 8.5
2020-Jun-26 02:00N 60°06' W 149°24'0 0.0 170 / 101006.3 11.5 8.3
2020-Jun-26 01:00N 60°06' W 149°24'0 0.0 170 / 81006.2 11.6 7.9
2020-Jun-26 00:00N 60°06' W 149°24'0 0.0 180 / 81006.4 11.4 8.3
2020-Jun-25 23:00N 60°06' W 149°24'0 0.0 170 / 91006.6 11.1 7.9
2020-Jun-25 22:00N 60°06' W 149°24'0 0.0 170 / 91006.7 11.0 7.7
2020-Jun-25 21:00N 60°06' W 149°24'0 0.0 160 / 71006.7 11.2 6.9
2020-Jun-25 20:00N 60°06' W 149°24'0 0.0 170 / 51006.8 10.5 8.0
2020-Jun-25 19:00N 60°06' W 149°24'0 0.0 180 / 61007.1 10.5 7.3
2020-Jun-25 18:00N 60°06' W 149°24'0 0.0 180 / 51007.4 10.0 7.6
2020-Jun-25 17:00N 60°06' W 149°24'0 0.0 050 / 41007.6 10.1 7.4
2020-Jun-25 16:00N 60°06' W 149°24'0 0.0 1008.1 10.2 6.4
2020-Jun-25 15:00N 60°06' W 149°24'0 0.0 360 / 51008.4 10.0 6.5
2020-Jun-25 14:00N 60°06' W 149°24'0 0.0 330 / 21008.6 8.9 7.6
2020-Jun-25 13:00N 60°06' W 149°24'0 0.0 240 / 11009.0 8.8 8.2
2020-Jun-25 12:00N 60°06' W 149°24'0 0.0 010 / 31009.3 9.0 8.0
2020-Jun-25 11:00N 60°06' W 149°24'0 0.0 270 / 21009.5 9.4 8.0
2020-Jun-25 10:00N 60°06' W 149°24'0 0.0 350 / 31009.9 9.1 8.0
2020-Jun-25 09:00N 60°06' W 149°24'0 0.0 270 / 21010.2 9.7 7.2
2020-Jun-25 08:00N 60°06' W 149°24'0 0.0 240 / 41010.3 10.9 6.1
2020-Jun-25 07:00N 60°06' W 149°24'0 0.0 240 / 61010.4 11.5 5.6
2020-Jun-25 06:00N 60°06' W 149°24'0 0.0 220 / 81010.3 11.5 5.9
2020-Jun-25 05:00N 60°06' W 149°24'0 0.0 230 / 71010.1 10.9 6.6
2020-Jun-25 04:00N 60°06' W 149°24'0 0.0 210 / 81009.8 12.1 5.5
2020-Jun-25 03:00N 60°06' W 149°24'0 0.0 190 / 91010.2 11.5 7.0
2020-Jun-25 02:00N 60°06' W 149°24'0 0.0 200 / 71010.4 11.7 6.1
2020-Jun-25 01:00N 60°06' W 149°24'0 0.0 190 / 101010.8 11.6 6.5
2020-Jun-25 00:00N 60°06' W 149°24'0 0.0 190 / 121010.7 11.6 6.8
2020-Jun-24 23:00N 60°06' W 149°24'0 0.0 190 / 121010.8 11.8 6.3
2020-Jun-24 22:00N 60°06' W 149°24'0 0.0 180 / 91010.9 11.6 5.8
2020-Jun-24 21:00N 60°06' W 149°24'0 0.0 170 / 71010.8 10.1 7.6
2020-Jun-24 20:00N 60°06' W 149°24'0 0.0 160 / 21010.7 9.6 7.0
2020-Jun-24 19:00N 60°06' W 149°24'0 0.0 200 / 31010.8 9.1 7.9
2020-Jun-24 18:00N 60°06' W 149°24'0 0.0 200 / 21010.7 8.9 7.3
2020-Jun-24 17:00N 60°06' W 149°24'0 0.0 250 / 21010.6 8.5 8.5
2020-Jun-24 16:00N 60°06' W 149°24'0 0.0 100 / 21010.4 8.2 8.2
2020-Jun-24 15:00N 60°06' W 149°24'0 0.0 200 / 31010.2 8.4 8.0
2020-Jun-24 14:00N 60°06' W 149°24'0 0.0 340 / 21009.9 8.5 8.4
2020-Jun-24 13:00N 60°06' W 149°24'0 0.0 220 / 11010.0 8.6 8.6
2020-Jun-24 12:00N 60°06' W 149°24'0 0.0 260 / 11010.1 8.5 8.4
2020-Jun-24 11:00N 60°06' W 149°24'0 0.0 350 / 11010.0 8.8 8.4
2020-Jun-24 10:00N 60°06' W 149°24'0 0.0 320 / 11010.1 8.4 8.0
2020-Jun-24 09:00N 60°06' W 149°24'0 0.0 270 / 21010.4 8.9 8.5
2020-Jun-24 08:00N 60°06' W 149°24'0 0.0 330 / 11010.3 8.7 8.3
2020-Jun-24 07:00N 60°06' W 149°24'0 0.0 260 / 11010.5 9.2 8.0
2020-Jun-24 06:00N 60°06' W 149°24'0 0.0 250 / 71010.7 9.7 6.5
2020-Jun-24 05:00N 60°06' W 149°24'0 0.0 220 / 101010.7 10.5 7.6
2020-Jun-24 04:00N 60°06' W 149°24'0 0.0 220 / 101010.6 10.7 7.7
2020-Jun-24 03:00N 60°06' W 149°24'0 0.0 220 / 121010.6 11.2 7.2
2020-Jun-24 02:00N 60°06' W 149°24'0 0.0 210 / 91011.0 11.0 7.2
2020-Jun-24 01:00N 60°06' W 149°24'0 0.0 190 / 101011.1 11.7 6.8
2020-Jun-24 00:00N 60°06' W 149°24'0 0.0 200 / 61011.4 11.4 7.9
2020-Jun-23 23:00N 60°06' W 149°24'0 0.0 190 / 51011.6 11.0 7.1
2020-Jun-23 22:00N 60°06' W 149°24'0 0.0 240 / 81011.6 10.9 6.1
2020-Jun-23 21:00N 60°06' W 149°24'0 0.0 200 / 101011.6 11.5 6.8
2020-Jun-23 20:00N 60°06' W 149°24'0 0.0 190 / 91011.5 10.5 8.0
2020-Jun-23 19:00N 60°06' W 149°24'   180 / 101011.0 11.2 7.8

Dump ship's entire track history